sensor_id;sensor_type;location;lat;lon;timestamp;pressure;altitude;pressure_sealevel;temperature;humidity
11806;BME280;5960;42.602;23.482;2022-12-18T00:01:53;94074.41;;;9.28;82.95
11806;BME280;5960;42.602;23.482;2022-12-18T00:04:22;94082.94;;;9.22;82.10
11806;BME280;5960;42.602;23.482;2022-12-18T00:06:49;94086.91;;;9.09;82.62
11806;BME280;5960;42.602;23.482;2022-12-18T00:09:16;94094.78;;;9.17;82.28
11806;BME280;5960;42.602;23.482;2022-12-18T00:11:43;94099.06;;;9.18;82.10
11806;BME280;5960;42.602;23.482;2022-12-18T00:14:12;94098.06;;;9.03;81.36
11806;BME280;5960;42.602;23.482;2022-12-18T00:16:40;94105.28;;;8.93;81.45
11806;BME280;5960;42.602;23.482;2022-12-18T00:19:10;94106.44;;;8.98;81.27
11806;BME280;5960;42.602;23.482;2022-12-18T00:21:37;94112.50;;;8.82;80.52
11806;BME280;5960;42.602;23.482;2022-12-18T00:24:06;94110.00;;;8.72;80.46
11806;BME280;5960;42.602;23.482;2022-12-18T00:26:34;94113.13;;;8.68;81.17
11806;BME280;5960;42.602;23.482;2022-12-18T00:29:04;94113.97;;;8.77;81.34
11806;BME280;5960;42.602;23.482;2022-12-18T00:31:33;94119.06;;;8.70;81.38
11806;BME280;5960;42.602;23.482;2022-12-18T00:34:00;94118.00;;;8.54;80.89
11806;BME280;5960;42.602;23.482;2022-12-18T00:36:29;94121.50;;;8.63;81.19
11806;BME280;5960;42.602;23.482;2022-12-18T00:38:57;94122.13;;;8.65;81.27
11806;BME280;5960;42.602;23.482;2022-12-18T00:41:25;94125.06;;;8.54;80.01
11806;BME280;5960;42.602;23.482;2022-12-18T00:44:11;94124.41;;;8.52;80.79
11806;BME280;5960;42.602;23.482;2022-12-18T00:46:39;94131.97;;;8.55;80.54
11806;BME280;5960;42.602;23.482;2022-12-18T00:49:07;94127.03;;;8.52;80.49
11806;BME280;5960;42.602;23.482;2022-12-18T00:51:34;94122.56;;;8.44;80.03
11806;BME280;5960;42.602;23.482;2022-12-18T00:54:00;94124.19;;;8.45;79.98
11806;BME280;5960;42.602;23.482;2022-12-18T00:56:27;94132.41;;;8.42;80.23
11806;BME280;5960;42.602;23.482;2022-12-18T00:58:54;94125.31;;;8.42;79.92
11806;BME280;5960;42.602;23.482;2022-12-18T01:01:21;94132.22;;;8.43;79.86
11806;BME280;5960;42.602;23.482;2022-12-18T01:03:49;94139.78;;;8.47;79.97
11806;BME280;5960;42.602;23.482;2022-12-18T01:06:16;94133.34;;;8.33;80.21
11806;BME280;5960;42.602;23.482;2022-12-18T01:08:43;94138.13;;;8.37;79.65
11806;BME280;5960;42.602;23.482;2022-12-18T01:11:11;94139.44;;;8.07;79.71
11806;BME280;5960;42.602;23.482;2022-12-18T01:13:39;94144.56;;;8.08;80.25
11806;BME280;5960;42.602;23.482;2022-12-18T01:16:05;94144.34;;;7.75;80.89
11806;BME280;5960;42.602;23.482;2022-12-18T01:18:32;94148.50;;;7.78;81.05
11806;BME280;5960;42.602;23.482;2022-12-18T01:21:00;94155.31;;;7.97;80.73
11806;BME280;5960;42.602;23.482;2022-12-18T01:23:28;94154.31;;;7.98;80.95
11806;BME280;5960;42.602;23.482;2022-12-18T01:25:54;94152.66;;;7.89;80.68
11806;BME280;5960;42.602;23.482;2022-12-18T01:28:21;94145.56;;;7.81;80.65
11806;BME280;5960;42.602;23.482;2022-12-18T01:30:48;94141.94;;;7.56;80.56
11806;BME280;5960;42.602;23.482;2022-12-18T01:33:14;94144.94;;;7.61;81.18
11806;BME280;5960;42.602;23.482;2022-12-18T01:35:42;94150.69;;;7.64;81.36
11806;BME280;5960;42.602;23.482;2022-12-18T01:38:10;94156.81;;;7.73;81.06
11806;BME280;5960;42.602;23.482;2022-12-18T01:40:36;94162.78;;;7.57;81.31
11806;BME280;5960;42.602;23.482;2022-12-18T01:43:03;94161.06;;;7.48;80.38
11806;BME280;5960;42.602;23.482;2022-12-18T01:45:31;94166.09;;;7.41;80.33
11806;BME280;5960;42.602;23.482;2022-12-18T01:47:59;94163.31;;;7.43;80.80
11806;BME280;5960;42.602;23.482;2022-12-18T01:50:31;94173.16;;;7.22;80.76
11806;BME280;5960;42.602;23.482;2022-12-18T01:53:03;94169.56;;;7.23;80.46
11806;BME280;5960;42.602;23.482;2022-12-18T01:55:36;94168.28;;;7.10;80.96
11806;BME280;5960;42.602;23.482;2022-12-18T01:58:04;94171.88;;;7.08;80.41
11806;BME280;5960;42.602;23.482;2022-12-18T02:00:31;94174.94;;;7.04;80.48
11806;BME280;5960;42.602;23.482;2022-12-18T02:02:58;94171.56;;;6.93;80.41
11806;BME280;5960;42.602;23.482;2022-12-18T02:05:35;94179.22;;;6.87;81.88
11806;BME280;5960;42.602;23.482;2022-12-18T02:08:09;94179.53;;;7.02;81.48
11806;BME280;5960;42.602;23.482;2022-12-18T02:10:45;94179.59;;;7.10;81.28
11806;BME280;5960;42.602;23.482;2022-12-18T02:13:18;94180.50;;;7.01;80.40
11806;BME280;5960;42.602;23.482;2022-12-18T02:15:51;94184.81;;;6.92;80.44
11806;BME280;5960;42.602;23.482;2022-12-18T02:18:24;94182.56;;;6.97;80.79
11806;BME280;5960;42.602;23.482;2022-12-18T02:20:59;94182.13;;;6.84;80.03
11806;BME280;5960;42.602;23.482;2022-12-18T02:23:40;94182.25;;;6.82;80.37
11806;BME280;5960;42.602;23.482;2022-12-18T02:26:15;94188.22;;;6.74;80.16
11806;BME280;5960;42.602;23.482;2022-12-18T02:28:46;94191.81;;;6.73;80.39
11806;BME280;5960;42.602;23.482;2022-12-18T02:31:19;94191.41;;;6.78;81.11
11806;BME280;5960;42.602;23.482;2022-12-18T02:33:49;94189.75;;;6.77;80.19
11806;BME280;5960;42.602;23.482;2022-12-18T02:36:17;94189.75;;;6.77;80.73
11806;BME280;5960;42.602;23.482;2022-12-18T02:38:46;94204.97;;;6.63;80.71
11806;BME280;5960;42.602;23.482;2022-12-18T02:41:15;94204.38;;;6.70;81.11
11806;BME280;5960;42.602;23.482;2022-12-18T02:43:47;94204.09;;;6.73;80.83
11806;BME280;5960;42.602;23.482;2022-12-18T02:46:25;94208.44;;;6.82;80.50
11806;BME280;5960;42.602;23.482;2022-12-18T02:48:57;94206.72;;;6.91;81.08
11806;BME280;5960;42.602;23.482;2022-12-18T02:51:30;94210.38;;;6.80;79.97
11806;BME280;5960;42.602;23.482;2022-12-18T02:54:08;94206.38;;;6.86;80.44
11806;BME280;5960;42.602;23.482;2022-12-18T02:56:41;94206.38;;;6.86;79.77
11806;BME280;5960;42.602;23.482;2022-12-18T02:59:13;94206.72;;;6.91;80.47
11806;BME280;5960;42.602;23.482;2022-12-18T03:01:50;94215.81;;;6.97;79.76
11806;BME280;5960;42.602;23.482;2022-12-18T03:04:24;94211.59;;;7.04;80.49
11806;BME280;5960;42.602;23.482;2022-12-18T03:06:55;94220.09;;;6.98;79.41
11806;BME280;5960;42.602;23.482;2022-12-18T03:09:27;94222.16;;;6.94;79.48
11806;BME280;5960;42.602;23.482;2022-12-18T03:12:02;94226.09;;;6.80;79.44
11806;BME280;5960;42.602;23.482;2022-12-18T03:14:48;94214.97;;;6.78;79.46
11806;BME280;5960;42.602;23.482;2022-12-18T03:17:17;94223.88;;;6.85;79.59
11806;BME280;5960;42.602;23.482;2022-12-18T03:19:46;94233.81;;;6.82;80.08
11806;BME280;5960;42.602;23.482;2022-12-18T03:22:16;94228.63;;;6.72;79.25
11806;BME280;5960;42.602;23.482;2022-12-18T03:24:44;94232.38;;;6.41;80.44
11806;BME280;5960;42.602;23.482;2022-12-18T03:27:16;94232.88;;;6.45;80.68
11806;BME280;5960;42.602;23.482;2022-12-18T03:29:47;94231.75;;;6.47;80.97
11806;BME280;5960;42.602;23.482;2022-12-18T03:32:19;94235.63;;;6.53;80.36
11806;BME280;5960;42.602;23.482;2022-12-18T03:34:49;94239.72;;;6.56;80.74
11806;BME280;5960;42.602;23.482;2022-12-18T03:37:17;94237.00;;;6.47;80.34
11806;BME280;5960;42.602;23.482;2022-12-18T03:39:44;94243.31;;;6.17;81.20
11806;BME280;5960;42.602;23.482;2022-12-18T03:42:15;94246.09;;;6.15;81.37
11806;BME280;5960;42.602;23.482;2022-12-18T03:44:48;94256.81;;;6.12;81.00
11806;BME280;5960;42.602;23.482;2022-12-18T03:47:24;94264.13;;;6.19;81.71
11806;BME280;5960;42.602;23.482;2022-12-18T03:49:57;94264.25;;;5.97;81.45
11806;BME280;5960;42.602;23.482;2022-12-18T03:52:27;94278.31;;;6.06;82.15
11806;BME280;5960;42.602;23.482;2022-12-18T03:54:58;94275.41;;;6.09;80.71
11806;BME280;5960;42.602;23.482;2022-12-18T03:57:30;94271.03;;;6.10;80.89
11806;BME280;5960;42.602;23.482;2022-12-18T04:00:01;94272.38;;;6.14;81.22
11806;BME280;5960;42.602;23.482;2022-12-18T04:02:28;94264.53;;;6.14;81.16
11806;BME280;5960;42.602;23.482;2022-12-18T04:04:59;94271.69;;;6.12;81.43
11806;BME280;5960;42.602;23.482;2022-12-18T04:07:28;94277.09;;;6.00;80.56
11806;BME280;5960;42.602;23.482;2022-12-18T04:09:56;94270.19;;;5.99;80.91
11806;BME280;5960;42.602;23.482;2022-12-18T04:12:25;94271.88;;;5.71;81.27
11806;BME280;5960;42.602;23.482;2022-12-18T04:14:53;94280.41;;;5.73;81.50
11806;BME280;5960;42.602;23.482;2022-12-18T04:17:20;94283.97;;;5.72;81.96
11806;BME280;5960;42.602;23.482;2022-12-18T04:19:47;94283.84;;;5.73;81.53
11806;BME280;5960;42.602;23.482;2022-12-18T04:22:13;94290.44;;;5.68;81.44
11806;BME280;5960;42.602;23.482;2022-12-18T04:24:40;94298.03;;;5.61;81.71
11806;BME280;5960;42.602;23.482;2022-12-18T04:27:07;94293.06;;;5.58;82.09
11806;BME280;5960;42.602;23.482;2022-12-18T04:29:34;94296.22;;;5.52;81.76
11806;BME280;5960;42.602;23.482;2022-12-18T04:32:02;94299.38;;;5.55;82.53
11806;BME280;5960;42.602;23.482;2022-12-18T04:34:28;94299.53;;;5.64;82.24
11806;BME280;5960;42.602;23.482;2022-12-18T04:36:56;94299.09;;;5.58;82.46
11806;BME280;5960;42.602;23.482;2022-12-18T04:39:22;94304.06;;;5.71;81.99
11806;BME280;5960;42.602;23.482;2022-12-18T04:41:49;94300.22;;;5.76;81.31
11806;BME280;5960;42.602;23.482;2022-12-18T04:44:16;94313.53;;;5.82;80.55
11806;BME280;5960;42.602;23.482;2022-12-18T04:46:42;94313.28;;;5.76;80.17
11806;BME280;5960;42.602;23.482;2022-12-18T04:49:10;94322.50;;;5.80;80.95
11806;BME280;5960;42.602;23.482;2022-12-18T04:51:38;94323.72;;;5.76;80.27
11806;BME280;5960;42.602;23.482;2022-12-18T04:54:05;94326.34;;;5.76;79.96
11806;BME280;5960;42.602;23.482;2022-12-18T04:56:31;94329.13;;;5.74;80.36
11806;BME280;5960;42.602;23.482;2022-12-18T04:58:59;94335.03;;;5.86;79.60
11806;BME280;5960;42.602;23.482;2022-12-18T05:01:25;94332.38;;;5.76;78.72
11806;BME280;5960;42.602;23.482;2022-12-18T05:03:52;94334.19;;;5.56;78.84
11806;BME280;5960;42.602;23.482;2022-12-18T05:06:20;94338.31;;;5.49;78.82
11806;BME280;5960;42.602;23.482;2022-12-18T05:08:47;94343.41;;;5.40;78.63
11806;BME280;5960;42.602;23.482;2022-12-18T05:11:14;94347.91;;;5.29;79.11
11806;BME280;5960;42.602;23.482;2022-12-18T05:13:42;94352.72;;;5.33;78.99
11806;BME280;5960;42.602;23.482;2022-12-18T05:16:09;94361.09;;;5.37;79.62
11806;BME280;5960;42.602;23.482;2022-12-18T05:18:36;94360.75;;;5.51;79.04
11806;BME280;5960;42.602;23.482;2022-12-18T05:21:03;94368.59;;;5.61;78.99
11806;BME280;5960;42.602;23.482;2022-12-18T05:23:34;94373.81;;;5.61;78.15
11806;BME280;5960;42.602;23.482;2022-12-18T05:26:04;94374.50;;;5.63;78.33
11806;BME280;5960;42.602;23.482;2022-12-18T05:28:32;94376.72;;;5.68;77.49
11806;BME280;5960;42.602;23.482;2022-12-18T05:31:01;94380.28;;;5.77;76.95
11806;BME280;5960;42.602;23.482;2022-12-18T05:33:30;94388.66;;;5.70;77.37
11806;BME280;5960;42.602;23.482;2022-12-18T05:35:58;94399.66;;;5.64;77.15
11806;BME280;5960;42.602;23.482;2022-12-18T05:38:26;94396.50;;;5.51;76.52
11806;BME280;5960;42.602;23.482;2022-12-18T05:40:55;94406.81;;;5.52;76.97
11806;BME280;5960;42.602;23.482;2022-12-18T05:43:23;94402.94;;;5.56;77.44
11806;BME280;5960;42.602;23.482;2022-12-18T05:45:51;94409.72;;;5.69;76.87
11806;BME280;5960;42.602;23.482;2022-12-18T05:48:18;94410.25;;;5.53;76.52
11806;BME280;5960;42.602;23.482;2022-12-18T05:50:47;94417.41;;;5.61;76.49
11806;BME280;5960;42.602;23.482;2022-12-18T05:53:15;94421.16;;;5.68;76.98
11806;BME280;5960;42.602;23.482;2022-12-18T05:55:43;94421.56;;;5.63;77.06
11806;BME280;5960;42.602;23.482;2022-12-18T05:58:12;94420.03;;;5.70;76.39
11806;BME280;5960;42.602;23.482;2022-12-18T06:00:45;94417.97;;;5.64;76.49
11806;BME280;5960;42.602;23.482;2022-12-18T06:03:13;94415.66;;;5.71;76.65
11806;BME280;5960;42.602;23.482;2022-12-18T06:05:41;94426.25;;;5.79;77.24
11806;BME280;5960;42.602;23.482;2022-12-18T06:08:08;94420.63;;;5.84;75.87
11806;BME280;5960;42.602;23.482;2022-12-18T06:10:36;94429.28;;;5.84;75.14
11806;BME280;5960;42.602;23.482;2022-12-18T06:13:03;94429.97;;;5.86;75.87
11806;BME280;5960;42.602;23.482;2022-12-18T06:15:31;94445.81;;;5.85;75.12
11806;BME280;5960;42.602;23.482;2022-12-18T06:17:59;94440.28;;;5.88;76.26
11806;BME280;5960;42.602;23.482;2022-12-18T06:20:26;94452.13;;;5.92;75.17
11806;BME280;5960;42.602;23.482;2022-12-18T06:22:53;94443.19;;;5.85;75.04
11806;BME280;5960;42.602;23.482;2022-12-18T06:25:19;94449.66;;;5.91;75.89
11806;BME280;5960;42.602;23.482;2022-12-18T06:27:47;94460.41;;;5.97;75.91
11806;BME280;5960;42.602;23.482;2022-12-18T06:30:14;94456.59;;;6.01;74.65
11806;BME280;5960;42.602;23.482;2022-12-18T06:32:42;94459.91;;;6.04;73.93
11806;BME280;5960;42.602;23.482;2022-12-18T06:35:09;94460.72;;;6.04;74.35
11806;BME280;5960;42.602;23.482;2022-12-18T06:37:35;94458.81;;;6.36;80.72
11806;BME280;5960;42.602;23.482;2022-12-18T06:40:02;94459.72;;;6.84;85.98
11806;BME280;5960;42.602;23.482;2022-12-18T06:42:30;94467.97;;;6.99;81.98
11806;BME280;5960;42.602;23.482;2022-12-18T06:44:57;94461.22;;;6.86;76.29
11806;BME280;5960;42.602;23.482;2022-12-18T06:47:24;94460.72;;;6.73;73.12
11806;BME280;5960;42.602;23.482;2022-12-18T06:49:52;94469.00;;;6.48;71.90
11806;BME280;5960;42.602;23.482;2022-12-18T06:52:18;94473.97;;;6.32;72.02
11806;BME280;5960;42.602;23.482;2022-12-18T06:54:45;94474.13;;;6.30;72.96
11806;BME280;5960;42.602;23.482;2022-12-18T06:57:12;94478.22;;;6.23;73.07
11806;BME280;5960;42.602;23.482;2022-12-18T06:59:38;94476.63;;;5.91;73.41
11806;BME280;5960;42.602;23.482;2022-12-18T07:02:05;94471.41;;;5.91;74.23
11806;BME280;5960;42.602;23.482;2022-12-18T07:04:32;94475.53;;;5.84;73.85
11806;BME280;5960;42.602;23.482;2022-12-18T07:07:00;94478.28;;;5.82;73.74
11806;BME280;5960;42.602;23.482;2022-12-18T07:09:27;94487.53;;;5.96;74.03
11806;BME280;5960;42.602;23.482;2022-12-18T07:11:54;94485.75;;;5.97;73.59
11806;BME280;5960;42.602;23.482;2022-12-18T07:14:20;94486.56;;;5.97;73.84
11806;BME280;5960;42.602;23.482;2022-12-18T07:16:47;94491.25;;;5.94;73.18
11806;BME280;5960;42.602;23.482;2022-12-18T07:19:14;94492.63;;;5.98;72.98
11806;BME280;5960;42.602;23.482;2022-12-18T07:21:40;94493.16;;;5.92;73.05
11806;BME280;5960;42.602;23.482;2022-12-18T07:24:09;94485.75;;;5.87;72.55
11806;BME280;5960;42.602;23.482;2022-12-18T07:26:35;94496.03;;;5.79;72.70
11806;BME280;5960;42.602;23.482;2022-12-18T07:29:02;94494.63;;;5.75;73.17
11806;BME280;5960;42.602;23.482;2022-12-18T07:31:29;94495.47;;;5.75;72.42
11806;BME280;5960;42.602;23.482;2022-12-18T07:33:56;94498.31;;;5.62;72.31
11806;BME280;5960;42.602;23.482;2022-12-18T07:36:22;94498.31;;;5.62;72.99
11806;BME280;5960;42.602;23.482;2022-12-18T07:38:50;94503.97;;;5.67;72.63
11806;BME280;5960;42.602;23.482;2022-12-18T07:41:19;94507.13;;;5.61;72.42
11806;BME280;5960;42.602;23.482;2022-12-18T07:43:46;94514.38;;;5.57;73.08
11806;BME280;5960;42.602;23.482;2022-12-18T07:46:14;94517.28;;;5.64;72.79
11806;BME280;5960;42.602;23.482;2022-12-18T07:48:42;94521.19;;;5.70;72.50
11806;BME280;5960;42.602;23.482;2022-12-18T07:51:08;94522.84;;;5.71;73.51
11806;BME280;5960;42.602;23.482;2022-12-18T07:53:36;94519.28;;;5.72;72.47
11806;BME280;5960;42.602;23.482;2022-12-18T07:56:04;94523.41;;;5.75;73.07
11806;BME280;5960;42.602;23.482;2022-12-18T07:58:33;94519.03;;;5.85;72.93
11806;BME280;5960;42.602;23.482;2022-12-18T08:01:04;94525.50;;;5.81;72.27
11806;BME280;5960;42.602;23.482;2022-12-18T08:03:32;94535.50;;;5.76;71.69
11806;BME280;5960;42.602;23.482;2022-12-18T08:06:00;94537.16;;;5.77;71.90
11806;BME280;5960;42.602;23.482;2022-12-18T08:08:26;94547.38;;;5.80;72.61
11806;BME280;5960;42.602;23.482;2022-12-18T08:10:53;94558.09;;;5.77;72.58
11806;BME280;5960;42.602;23.482;2022-12-18T08:13:20;94558.53;;;5.82;71.02
11806;BME280;5960;42.602;23.482;2022-12-18T08:15:55;94567.06;;;5.84;71.15
11806;BME280;5960;42.602;23.482;2022-12-18T08:18:22;94566.06;;;5.75;71.56
11806;BME280;5960;42.602;23.482;2022-12-18T08:20:49;94562.16;;;5.69;71.92
11806;BME280;5960;42.602;23.482;2022-12-18T08:23:16;94566.44;;;5.70;71.71
11806;BME280;5960;42.602;23.482;2022-12-18T08:25:42;94564.22;;;5.66;71.31
11806;BME280;5960;42.602;23.482;2022-12-18T08:28:09;94572.28;;;5.53;71.17
11806;BME280;5960;42.602;23.482;2022-12-18T08:30:36;94574.91;;;5.53;70.98
11806;BME280;5960;42.602;23.482;2022-12-18T08:33:04;94575.97;;;5.40;72.05
11806;BME280;5960;42.602;23.482;2022-12-18T08:35:34;94576.75;;;5.41;71.82
11806;BME280;5960;42.602;23.482;2022-12-18T08:38:01;94581.03;;;5.42;72.13
11806;BME280;5960;42.602;23.482;2022-12-18T08:40:28;94570.84;;;5.39;71.90
11806;BME280;5960;42.602;23.482;2022-12-18T08:42:54;94574.59;;;5.46;71.52
11806;BME280;5960;42.602;23.482;2022-12-18T08:45:38;94576.38;;;5.46;71.53
11806;BME280;5960;42.602;23.482;2022-12-18T08:48:07;94580.00;;;5.54;73.88
11806;BME280;5960;42.602;23.482;2022-12-18T08:50:33;94585.69;;;5.69;72.36
11806;BME280;5960;42.602;23.482;2022-12-18T08:53:00;94571.81;;;5.69;71.02
11806;BME280;5960;42.602;23.482;2022-12-18T08:55:27;94579.22;;;5.64;70.58
11806;BME280;5960;42.602;23.482;2022-12-18T08:57:54;94579.78;;;5.67;70.06
11806;BME280;5960;42.602;23.482;2022-12-18T09:00:21;94583.09;;;5.69;70.78
11806;BME280;5960;42.602;23.482;2022-12-18T09:02:48;94591.38;;;5.75;70.65
11806;BME280;5960;42.602;23.482;2022-12-18T09:05:16;94579.00;;;5.77;71.37
11806;BME280;5960;42.602;23.482;2022-12-18T09:07:42;94577.91;;;5.79;70.51
11806;BME280;5960;42.602;23.482;2022-12-18T09:10:09;94584.53;;;5.52;70.31
11806;BME280;5960;42.602;23.482;2022-12-18T09:12:36;94583.00;;;5.50;70.73
11806;BME280;5960;42.602;23.482;2022-12-18T09:15:03;94579.72;;;5.57;71.55
11806;BME280;5960;42.602;23.482;2022-12-18T09:17:30;94573.84;;;5.65;71.35
11806;BME280;5960;42.602;23.482;2022-12-18T09:19:57;94580.88;;;5.65;70.57
11806;BME280;5960;42.602;23.482;2022-12-18T09:22:25;94572.88;;;5.66;71.14
11806;BME280;5960;42.602;23.482;2022-12-18T09:24:52;94573.22;;;5.73;70.66
11806;BME280;5960;42.602;23.482;2022-12-18T09:27:19;94577.41;;;5.64;69.47
11806;BME280;5960;42.602;23.482;2022-12-18T09:29:45;94574.38;;;5.59;70.80
11806;BME280;5960;42.602;23.482;2022-12-18T09:32:12;94575.84;;;5.73;70.25
11806;BME280;5960;42.602;23.482;2022-12-18T09:34:39;94582.59;;;5.85;69.93
11806;BME280;5960;42.602;23.482;2022-12-18T09:37:06;94584.69;;;5.92;70.93
11806;BME280;5960;42.602;23.482;2022-12-18T09:39:35;94585.47;;;6.04;70.82
11806;BME280;5960;42.602;23.482;2022-12-18T09:42:02;94582.72;;;6.15;69.91
11806;BME280;5960;42.602;23.482;2022-12-18T09:44:32;94583.19;;;6.30;70.56
11806;BME280;5960;42.602;23.482;2022-12-18T09:47:09;94584.16;;;6.39;68.87
11806;BME280;5960;42.602;23.482;2022-12-18T09:49:40;94589.97;;;6.42;69.17
11806;BME280;5960;42.602;23.482;2022-12-18T09:52:18;94582.22;;;6.41;69.50
11806;BME280;5960;42.602;23.482;2022-12-18T09:54:50;94579.34;;;6.44;68.28
11806;BME280;5960;42.602;23.482;2022-12-18T09:57:21;94583.91;;;6.52;68.84
11806;BME280;5960;42.602;23.482;2022-12-18T09:59:53;94586.41;;;6.53;68.45
11806;BME280;5960;42.602;23.482;2022-12-18T10:02:22;94576.19;;;6.50;69.10
11806;BME280;5960;42.602;23.482;2022-12-18T10:05:02;94582.22;;;6.41;67.26
11806;BME280;5960;42.602;23.482;2022-12-18T10:07:38;94588.56;;;6.38;67.73
11806;BME280;5960;42.602;23.482;2022-12-18T10:10:17;94574.66;;;6.38;67.09
11806;BME280;5960;42.602;23.482;2022-12-18T10:12:53;94583.16;;;6.20;66.79
11806;BME280;5960;42.602;23.482;2022-12-18T10:15:25;94583.69;;;6.14;65.86
11806;BME280;5960;42.602;23.482;2022-12-18T10:17:57;94574.47;;;6.10;66.87
11806;BME280;5960;42.602;23.482;2022-12-18T10:20:33;94582.38;;;6.29;67.33
11806;BME280;5960;42.602;23.482;2022-12-18T10:23:05;94576.03;;;6.42;66.85
11806;BME280;5960;42.602;23.482;2022-12-18T10:25:52;94585.44;;;6.44;66.75
11806;BME280;5960;42.602;23.482;2022-12-18T10:28:20;94578.94;;;6.48;66.37
11806;BME280;5960;42.602;23.482;2022-12-18T10:30:48;94575.94;;;6.53;66.54
11806;BME280;5960;42.602;23.482;2022-12-18T10:33:17;94576.97;;;6.31;67.31
11806;BME280;5960;42.602;23.482;2022-12-18T10:35:45;94574.91;;;6.25;66.77
11806;BME280;5960;42.602;23.482;2022-12-18T10:38:25;94572.69;;;6.20;65.98
11806;BME280;5960;42.602;23.482;2022-12-18T10:40:55;94571.72;;;6.21;65.51
11806;BME280;5960;42.602;23.482;2022-12-18T10:43:25;94571.16;;;6.08;64.98
11806;BME280;5960;42.602;23.482;2022-12-18T10:46:14;94583.00;;;6.12;66.45
11806;BME280;5960;42.602;23.482;2022-12-18T10:48:53;94566.34;;;6.13;65.95
11806;BME280;5960;42.602;23.482;2022-12-18T10:51:23;94564.41;;;6.15;65.53
11806;BME280;5960;42.602;23.482;2022-12-18T10:53:54;94568.94;;;6.13;66.61
11806;BME280;5960;42.602;23.482;2022-12-18T10:56:24;94565.16;;;5.86;64.79
11806;BME280;5960;42.602;23.482;2022-12-18T10:58:57;94566.88;;;5.76;65.61
11806;BME280;5960;42.602;23.482;2022-12-18T11:01:25;94573.72;;;5.67;66.48
11806;BME280;5960;42.602;23.482;2022-12-18T11:04:07;94570.28;;;5.66;65.66
11806;BME280;5960;42.602;23.482;2022-12-18T11:06:52;94565.78;;;5.78;66.59
11806;BME280;5960;42.602;23.482;2022-12-18T11:09:20;94568.03;;;5.83;65.86
11806;BME280;5960;42.602;23.482;2022-12-18T11:11:50;94574.41;;;6.00;66.64
11806;BME280;5960;42.602;23.482;2022-12-18T11:14:22;94575.44;;;6.09;66.94
11806;BME280;5960;42.602;23.482;2022-12-18T11:16:50;94565.59;;;6.01;66.21
11806;BME280;5960;42.602;23.482;2022-12-18T11:19:27;94571.56;;;6.13;66.55
11806;BME280;5960;42.602;23.482;2022-12-18T11:21:56;94565.94;;;6.17;66.75
11806;BME280;5960;42.602;23.482;2022-12-18T11:24:27;94574.09;;;6.24;66.27
11806;BME280;5960;42.602;23.482;2022-12-18T11:26:57;94574.03;;;6.05;65.58
11806;BME280;5960;42.602;23.482;2022-12-18T11:29:30;94568.91;;;6.03;66.76
11806;BME280;5960;42.602;23.482;2022-12-18T11:32:26;94569.50;;;6.07;66.27
11806;BME280;5960;42.602;23.482;2022-12-18T11:34:59;94579.06;;;5.96;66.36
11806;BME280;5960;42.602;23.482;2022-12-18T11:37:28;94576.00;;;5.91;65.84
11806;BME280;5960;42.602;23.482;2022-12-18T11:39:59;94580.53;;;5.89;65.20
11806;BME280;5960;42.602;23.482;2022-12-18T11:42:35;94578.63;;;5.91;65.90
11806;BME280;5960;42.602;23.482;2022-12-18T11:45:20;94582.06;;;5.82;64.83
11806;BME280;5960;42.602;23.482;2022-12-18T11:47:54;94577.31;;;5.66;65.45
11806;BME280;5960;42.602;23.482;2022-12-18T11:50:26;94578.25;;;5.65;64.16
11806;BME280;5960;42.602;23.482;2022-12-18T11:52:52;94587.34;;;5.70;65.36
11806;BME280;5960;42.602;23.482;2022-12-18T11:55:27;94583.00;;;5.81;64.52
11806;BME280;5960;42.602;23.482;2022-12-18T11:58:00;94583.38;;;5.76;65.14
11806;BME280;5960;42.602;23.482;2022-12-18T12:00:30;94580.66;;;5.78;65.16
11806;BME280;5960;42.602;23.482;2022-12-18T12:03:10;94580.44;;;5.91;64.89
11806;BME280;5960;42.602;23.482;2022-12-18T12:05:51;94577.03;;;6.00;64.09
11806;BME280;5960;42.602;23.482;2022-12-18T12:08:26;94578.16;;;6.07;63.83
11806;BME280;5960;42.602;23.482;2022-12-18T12:11:02;94582.91;;;5.92;64.59
11806;BME280;5960;42.602;23.482;2022-12-18T12:13:41;94574.66;;;5.87;64.42
11806;BME280;5960;42.602;23.482;2022-12-18T12:16:16;94576.16;;;5.90;64.36
11806;BME280;5960;42.602;23.482;2022-12-18T12:18:53;94578.75;;;5.80;64.59
11806;BME280;5960;42.602;23.482;2022-12-18T12:21:32;94573.81;;;5.86;64.38
11806;BME280;5960;42.602;23.482;2022-12-18T12:24:10;94569.13;;;5.90;64.52
11806;BME280;5960;42.602;23.482;2022-12-18T12:26:48;94583.16;;;5.89;63.75
11806;BME280;5960;42.602;23.482;2022-12-18T12:29:34;94578.47;;;5.83;63.38
11806;BME280;5960;42.602;23.482;2022-12-18T12:32:17;94574.97;;;5.72;63.55
11806;BME280;5960;42.602;23.482;2022-12-18T12:34:55;94578.00;;;5.68;63.80
11806;BME280;5960;42.602;23.482;2022-12-18T12:37:32;94581.66;;;5.55;64.22
11806;BME280;5960;42.602;23.482;2022-12-18T12:40:04;94581.47;;;5.47;64.74
11806;BME280;5960;42.602;23.482;2022-12-18T12:42:35;94579.53;;;5.39;65.26
11806;BME280;5960;42.602;23.482;2022-12-18T12:45:28;94581.03;;;5.42;65.51
11806;BME280;5960;42.602;23.482;2022-12-18T12:47:57;94578.34;;;5.53;66.09
11806;BME280;5960;42.602;23.482;2022-12-18T12:50:25;94572.53;;;5.50;65.01
11806;BME280;5960;42.602;23.482;2022-12-18T12:52:54;94581.97;;;5.62;65.32
11806;BME280;5960;42.602;23.482;2022-12-18T12:55:24;94587.75;;;5.66;66.39
11806;BME280;5960;42.602;23.482;2022-12-18T12:57:58;94593.03;;;5.76;65.87
11806;BME280;5960;42.602;23.482;2022-12-18T13:00:31;94604.69;;;5.71;66.25
11806;BME280;5960;42.602;23.482;2022-12-18T13:03:08;94599.63;;;5.70;66.11
11806;BME280;5960;42.602;23.482;2022-12-18T13:05:41;94599.31;;;5.63;66.23
11806;BME280;5960;42.602;23.482;2022-12-18T13:08:10;94606.56;;;5.60;66.12
11806;BME280;5960;42.602;23.482;2022-12-18T13:10:38;94616.72;;;5.74;66.50
11806;BME280;5960;42.602;23.482;2022-12-18T13:13:07;94615.09;;;5.83;65.74
11806;BME280;5960;42.602;23.482;2022-12-18T13:15:41;94611.13;;;5.88;65.79
11806;BME280;5960;42.602;23.482;2022-12-18T13:18:16;94615.59;;;5.77;65.14
11806;BME280;5960;42.602;23.482;2022-12-18T13:20:44;94615.59;;;5.77;66.45
11806;BME280;5960;42.602;23.482;2022-12-18T13:23:32;94613.16;;;5.85;66.14
11806;BME280;5960;42.602;23.482;2022-12-18T13:26:31;94611.25;;;5.87;65.34